• Join FlightAware (Why Join?)
  • Login
  • US Flag 
06:10AM EDT


 

Airport Tracker/Info


-or-


 

Live Flight TrackerFlight Track Log ✈ SKW2988 ✈ 29-Apr-2013 ✈ KBUR - KPHX

Flight Track Log - Related Links

Times and Time Zones

All times are in EDT time to prevent confusion due to time zone crossing. See the SKW2988 flight status page for this flight to view local times or setup timezone preferences in your user account.

Time Position Orientation Groundspeed Altitude Reporting Facility
EDT Latitude Longitude Course Direction KTS MPH feet Rate Location/Type
10:30PM 34.1667 -118.3667 39° Northeast 179 206 2,400  Level Southern California TRACON
10:31PM 34.1333 -118.4167 231° Southwest 219 252 5,300 2,400 Climbing Southern California TRACON
10:33PM 34.1850 -118.4642 323° Northwest 248 285 8,900 2,160 Climbing Los Angeles Center
10:34PM 34.2714 -118.4261 20° North 277 319 11,200 1,920 Climbing Los Angeles Center
10:35PM 34.3531 -118.3869 22° Northeast 311 358 12,900 1,680 Climbing Los Angeles Center
10:36PM 34.4845 -118.2655 39° Northeast  Level FlightAware Approximate
10:36PM 34.4394 -118.3450 22° Northeast 335 386 14,700  Level Los Angeles Center
10:37PM 34.5056 -118.2625 46° Northeast 345 397 16,900 1,920 Climbing Los Angeles Center
10:38PM 34.5653 -118.1703 52° Northeast 349 402 18,700 1,680 Climbing Los Angeles Center
10:39PM 34.6283 -118.0669 53° Northeast 356 410 20,400 1,500 Climbing Los Angeles Center
10:40PM 34.6447 -117.9453 81° East 368 423 21,800 1,200 Climbing Los Angeles Center
10:41PM 34.6583 -117.8197 82° East 377 434 22,900 1,260 Climbing Los Angeles Center
10:42PM 34.6742 -117.6669 83° East 384 442 24,500 1,200 Climbing Los Angeles Center
10:43PM 34.6875 -117.5383 83° East 387 445 25,500 960 Climbing Los Angeles Center
10:44PM 34.7017 -117.4081 82° East 393 452 26,500 720 Climbing Los Angeles Center
10:45PM 34.7150 -117.2747 83° East 400 460 27,000 240 Climbing Los Angeles Center
10:46PM 34.7300 -117.1358 82° East 415 478 27,000  Level Los Angeles Center
10:47PM 34.7450 -116.9967 82° East 421 484 27,100 360 Climbing Los Angeles Center
10:48PM 34.7614 -116.8281 83° East 420 483 27,800 720 Climbing Los Angeles Center
10:49PM 34.7756 -116.6875 83° East 421 484 28,600 540 Climbing Los Angeles Center
10:50PM 34.7892 -116.5461 83° East 423 487 29,000 180 Climbing Los Angeles Center
10:51PM 34.8111 -116.4039 79° East 427 491 29,000  Level Los Angeles Center
10:52PM 34.8483 -116.2672 72° East 426 490 29,000  Level Los Angeles Center
10:53PM 34.8833 -116.1325 72° East 421 484 29,000  Level Los Angeles Center
10:54PM 34.9178 -115.9983 73° East 418 481 29,000  Level Los Angeles Center
10:55PM 34.9464 -115.8942 71° East 411 473 29,000  Level Los Angeles Center
10:56PM 34.9931 -115.7086 73° East 411 473 29,000  Level Los Angeles Center
10:57PM 35.0275 -115.5792 72° East 405 466 29,000  Level Los Angeles Center
10:58PM 35.0617 -115.4483 72° East 405 466 29,000  Level Los Angeles Center
10:59PM 35.0950 -115.3169 73° East 405 466 29,000  Level Los Angeles Center
11:00PM 35.1272 -115.1892 73° East 403 464 29,000  Level Los Angeles Center
11:02PM 35.1731 -115.0378 70° East 398 458 29,000  Level Los Angeles Center
11:03PM 35.2144 -114.9092 68° East 404 465 29,000  Level Los Angeles Center
11:04PM 35.2528 -114.7847 69° East 397 457 29,000  Level Los Angeles Center
11:05PM 35.2914 -114.6581 69° East 398 458 29,000  Level Los Angeles Center
11:06PM 35.3308 -114.5311 69° East 399 459 29,000  Level Los Angeles Center
11:08PM 35.4147 -114.2519 70° East 399 459 29,000  Level Albuquerque Center
11:09PM 35.4478 -114.1417 70° East 399 459 29,000  Level Los Angeles Center
11:10PM 35.4858 -114.0156 70° East 398 458 29,000  Level Los Angeles Center
11:11PM 35.4758 -113.8847 95° East 407 468 29,000  Level Los Angeles Center
11:12PM 35.3997 -113.7458 124° Southeast 412 474 29,000  Level Los Angeles Center
11:13PM 35.3372 -113.6300 123° Southeast 411 473 29,000  Level Los Angeles Center
11:14PM 35.2744 -113.5169 124° Southeast 407 468 29,000  Level Los Angeles Center
11:15PM 35.2108 -113.3994 124° Southeast 417 480 29,000  Level Los Angeles Center
11:16PM 35.1461 -113.2803 124° Southeast 424 488 29,000  Level Los Angeles Center
11:17PM 35.0669 -113.1364 124° Southeast 428 493 29,000 -300 Level Albuquerque Center
11:18PM 35.0000 -113.0156 124° Southeast 434 499 28,500 -720 Descending Albuquerque Center
11:19PM 34.9325 -112.8925 124° Southeast 441 507 27,600 -900 Descending Albuquerque Center
11:20PM 34.8672 -112.7750 124° Southeast 434 499 26,700 -960 Descending Albuquerque Center
11:21PM 34.8017 -112.6581 124° Southeast 427 491 25,700 -1,020 Descending Albuquerque Center
11:22PM 34.7367 -112.5419 124° Southeast 421 484 24,700 -1,020 Descending Albuquerque Center
11:23PM 34.6603 -112.4394 132° Southeast 415 478 23,700 -1,380 Descending Albuquerque Center
11:24PM 34.5564 -112.3397 142° Southeast 400 460 21,900 -1,560 Descending Albuquerque Center
11:25PM 34.4872 -112.2714 141° Southeast 392 451 20,600 -1,620 Descending Albuquerque Center
11:26PM 34.3781 -112.2125 156° South 360 414 18,700 -1,800 Descending Albuquerque Center
11:27PM 34.2814 -112.1878 168° South 357 411 17,000 -1,620 Descending Albuquerque Center
11:28PM 34.1872 -112.1639 168° South 350 403 15,500 -1,380 Descending Albuquerque Center
11:29PM 34.0983 -112.1400 167° South 331 381 14,200 -1,380 Descending Albuquerque Center
11:30PM 34.0158 -112.1178 167° South 310 357 12,800 -1,260 Descending Albuquerque Center
11:31PM 33.9353 -112.0972 168° South 301 346 11,700 -1,080 Descending Albuquerque Center
11:32PM 33.8536 -112.0767 168° South 302 348 10,700 -840 Descending Albuquerque Center
11:33PM 33.7556 -112.0522 168° South 303 349 10,000 -600 Descending Albuquerque Center
11:34PM 33.6753 -112.0383 172° South 294 338 9,600 -480 Descending Albuquerque Center
11:35PM 33.6039 -112.0258 172° South 264 304 9,100 -540 Descending Albuquerque Center
11:36PM 33.5428 -111.9917 155° Southeast 249 287 8,600 -720 Descending Albuquerque Center
11:37PM 33.5297 -111.9189 102° East 229 264 7,700 -1,200 Descending Albuquerque Center
11:38PM 33.5272 -111.8458 92° East 223 257 6,200 -1,680 Descending Albuquerque Center
11:39PM 33.4800 -111.8133 150° Southeast 200 230 4,300 -1,560 Descending Albuquerque Center
11:40PM 33.4494 -111.8533 228° Southwest 168 193 3,100 -900 Descending Albuquerque Center
11:41PM 33.4406 -111.9036 258° West 128 147 2,500 -600 Descending Albuquerque Center
11:42PM 33.4411 -111.9453 271° West 125 144 1,900 -600 Descending Albuquerque Center
11:43PM 33.4411 -111.9872 270° West 126 145 1,300 -600 Descending Albuquerque Center